createdAt,value
2023-04-26T00:00:30.374Z,496.2308
2023-04-26T00:01:33.345Z,496.0769
2023-04-26T00:02:36.376Z,498.4615
2023-04-26T00:03:39.298Z,495.6923
2023-04-26T00:04:42.249Z,497.9231
2023-04-26T00:05:45.132Z,500.0000
2023-04-26T00:06:48.130Z,503.3077
2023-04-26T00:07:50.936Z,503.9231
2023-04-26T00:08:54.238Z,503.9231
2023-04-26T00:09:56.868Z,505.6154
2023-04-26T00:10:59.799Z,506.6154
2023-04-26T00:12:02.794Z,503.7692
2023-04-26T00:13:05.747Z,503.3077
2023-04-26T00:14:08.711Z,505.8462
2023-04-26T00:15:11.644Z,505.3077
2023-04-26T00:16:14.576Z,505.9231
2023-04-26T00:17:17.520Z,506.0769
2023-04-26T00:18:20.478Z,507.1538
2023-04-26T00:19:23.413Z,504.1538
2023-04-26T00:20:26.420Z,504.5385
2023-04-26T00:21:29.366Z,503.3846
2023-04-26T00:22:32.283Z,502.0769
2023-04-26T00:23:35.219Z,500.5385
2023-04-26T00:24:38.176Z,498.5385
2023-04-26T00:25:41.152Z,500.2308
2023-04-26T00:26:44.068Z,505.5385
2023-04-26T00:27:47.026Z,507.2308
2023-04-26T00:28:50.264Z,507.3846
2023-04-26T00:29:52.915Z,510.0769
2023-04-26T00:30:55.891Z,512.1539
2023-04-26T00:31:58.947Z,514.0769
2023-04-26T00:33:01.800Z,513.1539
2023-04-26T00:34:04.718Z,508.2308
2023-04-26T00:35:07.706Z,504.0000
2023-04-26T00:36:10.617Z,501.2308
2023-04-26T00:37:13.576Z,501.5385
2023-04-26T00:38:16.517Z,499.0000
2023-04-26T00:39:19.465Z,496.8462
2023-04-26T00:40:22.451Z,494.7692
2023-04-26T00:41:25.374Z,491.0000
2023-04-26T00:42:28.390Z,489.0769
2023-04-26T00:43:31.260Z,490.3077
2023-04-26T00:44:34.219Z,490.9231
2023-04-26T00:45:37.235Z,492.0000
2023-04-26T00:46:40.111Z,493.4615
2023-04-26T00:47:43.082Z,494.1538
2023-04-26T00:48:46.009Z,495.2308
2023-04-26T00:49:48.983Z,497.6154
2023-04-26T00:50:51.946Z,501.2308
2023-04-26T00:51:54.913Z,503.6923
2023-04-26T00:52:57.817Z,505.5385
2023-04-26T00:54:00.764Z,508.1538
2023-04-26T00:55:03.755Z,516.2308
2023-04-26T00:56:06.837Z,520.8461
2023-04-26T00:57:09.641Z,519.6154
2023-04-26T00:58:12.664Z,519.0769
2023-04-26T00:59:15.530Z,517.2308
2023-04-26T01:00:18.493Z,516.2308
2023-04-26T01:01:21.637Z,514.9231
2023-04-26T01:02:24.444Z,515.1539
2023-04-26T01:03:27.495Z,514.2308
2023-04-26T01:04:30.408Z,515.5385
2023-04-26T01:05:33.275Z,516.3077
2023-04-26T01:06:36.202Z,520.7692
2023-04-26T01:07:39.149Z,522.0000
2023-04-26T01:08:42.075Z,521.3077
2023-04-26T01:09:45.018Z,520.3846
2023-04-26T01:10:48.008Z,522.0000
2023-04-26T01:11:50.921Z,520.1539
2023-04-26T01:12:53.885Z,524.3846
2023-04-26T01:13:56.822Z,521.0769
2023-04-26T01:14:59.787Z,516.1539
2023-04-26T01:16:02.849Z,516.3077
2023-04-26T01:17:05.786Z,517.5385
2023-04-26T01:18:08.635Z,519.0769
2023-04-26T01:19:11.571Z,518.9231
2023-04-26T01:20:14.520Z,518.6154
2023-04-26T01:21:17.479Z,517.0000
2023-04-26T01:22:20.430Z,520.1539
2023-04-26T01:23:23.469Z,523.1539
2023-04-26T01:24:26.376Z,528.9231
2023-04-26T01:25:29.287Z,530.7692
2023-04-26T01:26:32.240Z,530.4615
2023-04-26T01:27:35.191Z,526.0000
2023-04-26T01:28:38.224Z,526.3846
2023-04-26T01:29:41.128Z,525.3077
2023-04-26T01:30:44.078Z,526.0000
2023-04-26T01:31:47.021Z,527.6923
2023-04-26T01:32:49.997Z,526.1539
2023-04-26T01:33:52.980Z,525.0769
2023-04-26T01:34:55.868Z,522.7692
2023-04-26T01:35:58.799Z,524.3846
2023-04-26T01:37:01.754Z,535.1539
2023-04-26T01:38:04.736Z,533.3846
2023-04-26T01:39:07.657Z,529.9231
2023-04-26T01:40:10.629Z,527.0000
2023-04-26T01:41:13.566Z,527.0000
2023-04-26T01:42:16.515Z,526.9231
2023-04-26T01:43:19.484Z,525.6923
2023-04-26T01:44:22.432Z,522.1539
2023-04-26T01:45:25.415Z,523.9231
2023-04-26T01:46:28.358Z,522.8461
2023-04-26T01:47:31.456Z,516.6154
2023-04-26T01:48:34.338Z,519.4615
2023-04-26T01:49:37.321Z,514.0769
2023-04-26T01:50:40.216Z,513.4615
2023-04-26T01:51:43.177Z,515.5385
2023-04-26T01:52:46.121Z,514.3846
2023-04-26T01:53:49.078Z,515.0769
2023-04-26T01:54:52.024Z,513.6154
2023-04-26T01:55:54.968Z,512.2308
2023-04-26T01:56:57.923Z,532.6154
2023-04-26T01:58:00.866Z,574.4615
2023-04-26T01:59:03.827Z,572.4615
2023-04-26T02:00:06.779Z,568.8461
2023-04-26T02:01:09.792Z,565.0000
2023-04-26T02:02:12.748Z,555.6923
2023-04-26T02:03:15.744Z,538.3077
2023-04-26T02:04:18.574Z,528.9231
2023-04-26T02:05:21.618Z,525.6154
2023-04-26T02:06:24.504Z,519.8461
2023-04-26T02:07:27.474Z,517.3846
2023-04-26T02:08:30.422Z,520.0769
2023-04-26T02:09:33.354Z,521.4615
2023-04-26T02:10:36.364Z,521.5385
2023-04-26T02:11:39.266Z,522.9231
2023-04-26T02:12:42.229Z,518.5385
2023-04-26T02:13:45.162Z,511.8462
2023-04-26T02:14:48.129Z,510.2308
2023-04-26T02:15:51.097Z,509.6154
2023-04-26T02:16:54.076Z,508.9231
2023-04-26T02:17:57.064Z,508.0769
2023-04-26T02:18:59.931Z,503.6154
2023-04-26T02:20:02.904Z,503.0000
2023-04-26T02:21:05.845Z,505.4615
2023-04-26T02:22:08.810Z,507.1538
2023-04-26T02:23:11.753Z,514.0000
2023-04-26T02:24:14.718Z,515.6154
2023-04-26T02:25:17.716Z,519.3846
2023-04-26T02:26:20.646Z,520.6923
2023-04-26T02:27:23.592Z,517.8461
2023-04-26T02:28:26.564Z,520.6154
2023-04-26T02:29:42.250Z,519.3077
2023-04-26T02:30:32.431Z,519.0000
2023-04-26T02:31:35.444Z,521.6154
2023-04-26T02:32:38.397Z,520.8461
2023-04-26T02:33:41.372Z,521.6923
2023-04-26T02:34:44.256Z,524.5385
2023-04-26T02:35:47.199Z,526.1539
2023-04-26T02:36:50.179Z,526.7692
2023-04-26T02:37:53.093Z,527.1539
2023-04-26T02:38:56.077Z,528.0000
2023-04-26T02:39:59.006Z,528.0000
2023-04-26T02:41:02.034Z,527.7692
2023-04-26T02:42:05.113Z,528.1539
2023-04-26T02:43:07.854Z,528.1539
2023-04-26T02:44:10.826Z,526.1539
2023-04-26T02:45:13.784Z,522.0000
2023-04-26T02:46:17.394Z,516.8461
2023-04-26T02:47:19.657Z,513.8461
2023-04-26T02:48:22.622Z,514.0000
2023-04-26T02:49:25.599Z,513.6154
2023-04-26T02:50:28.582Z,515.2308
2023-04-26T02:51:31.461Z,517.3846
2023-04-26T02:52:34.446Z,522.8461
2023-04-26T02:53:37.378Z,525.8461
2023-04-26T02:54:40.410Z,523.2308
2023-04-26T02:55:43.284Z,522.0769
2023-04-26T02:56:46.236Z,523.4615
2023-04-26T02:57:49.184Z,526.0000
2023-04-26T02:58:52.368Z,531.8461
2023-04-26T02:59:55.095Z,530.3846
2023-04-26T03:02:01.029Z,526.0000
2023-04-26T03:03:04.047Z,527.3846
2023-04-26T03:04:07.079Z,536.0000
2023-04-26T03:05:09.900Z,539.3077
2023-04-26T03:06:12.799Z,534.4615
2023-04-26T03:07:15.781Z,530.0000
2023-04-26T03:08:18.682Z,531.0769
2023-04-26T03:09:21.645Z,533.5385
2023-04-26T03:10:24.593Z,531.0769
2023-04-26T03:11:27.573Z,531.0000
2023-04-26T03:12:30.484Z,533.1539
2023-04-26T03:13:33.498Z,537.6923
2023-04-26T03:14:36.395Z,538.9231
2023-04-26T03:15:39.359Z,540.6923
2023-04-26T03:16:42.402Z,543.6923
2023-04-26T03:17:45.269Z,544.7692
2023-04-26T03:18:48.218Z,538.4615
2023-04-26T03:19:51.144Z,536.3077
2023-04-26T03:20:54.116Z,533.7692
2023-04-26T03:21:57.049Z,530.0000
2023-04-26T03:23:00.011Z,527.8461
2023-04-26T03:24:02.963Z,525.0769
2023-04-26T03:25:05.981Z,529.6923
2023-04-26T03:26:08.848Z,526.2308
2023-04-26T03:27:11.812Z,523.0000
2023-04-26T03:28:14.814Z,523.2308
2023-04-26T03:29:17.690Z,521.3077
2023-04-26T03:30:20.645Z,517.8461
2023-04-26T03:31:23.706Z,518.2308
2023-04-26T03:32:26.576Z,518.3077
2023-04-26T03:33:29.505Z,519.2308
2023-04-26T03:34:32.444Z,516.7692
2023-04-26T03:35:35.393Z,516.4615
2023-04-26T03:36:38.408Z,517.8461
2023-04-26T03:37:41.293Z,518.9231
2023-04-26T03:38:44.285Z,518.6923
2023-04-26T03:39:47.203Z,519.8461
2023-04-26T03:40:50.168Z,522.3077
2023-04-26T03:41:53.123Z,522.8461
2023-04-26T03:42:56.087Z,524.9231
2023-04-26T03:43:59.005Z,527.0000
2023-04-26T03:45:01.962Z,525.5385
2023-04-26T03:46:05.014Z,523.6154
2023-04-26T03:47:07.880Z,519.8461
2023-04-26T03:48:10.874Z,518.0769
2023-04-26T03:49:13.792Z,520.6154
2023-04-26T03:50:16.723Z,522.7692
2023-04-26T03:51:19.685Z,526.1539
2023-04-26T03:52:22.623Z,526.3846
2023-04-26T03:53:25.589Z,526.3846
2023-04-26T03:54:28.538Z,524.6154
2023-04-26T03:55:31.501Z,523.4615
2023-04-26T03:56:34.472Z,522.3846
2023-04-26T03:57:37.396Z,520.7692
2023-04-26T03:58:40.395Z,518.7692
2023-04-26T03:59:43.304Z,517.1539
2023-04-26T04:00:46.243Z,515.6923
2023-04-26T04:01:49.204Z,514.4615
2023-04-26T04:02:52.289Z,514.3077
2023-04-26T04:03:55.463Z,515.6923
2023-04-26T04:04:58.222Z,517.3077
2023-04-26T04:06:01.210Z,517.4615
2023-04-26T04:07:03.973Z,515.5385
2023-04-26T04:08:07.157Z,514.2308
2023-04-26T04:09:09.918Z,516.1539
2023-04-26T04:10:12.855Z,517.0000
2023-04-26T04:11:16.904Z,518.4615
2023-04-26T04:12:18.854Z,520.9231
2023-04-26T04:13:21.710Z,527.6154
2023-04-26T04:14:24.692Z,525.5385
2023-04-26T04:15:27.682Z,523.6154
2023-04-26T04:16:30.672Z,524.7692
2023-04-26T04:17:33.563Z,526.5385
2023-04-26T04:18:36.627Z,524.1539
2023-04-26T04:19:39.458Z,523.0000
2023-04-26T04:20:42.400Z,523.5385
2023-04-26T04:21:45.376Z,524.3077
2023-04-26T04:22:48.301Z,524.5385
2023-04-26T04:23:51.253Z,527.5385
2023-04-26T04:24:54.243Z,524.2308
2023-04-26T04:25:57.169Z,523.4615
2023-04-26T04:27:00.126Z,519.6923
2023-04-26T04:28:03.147Z,517.6154
2023-04-26T04:29:05.989Z,516.0769
2023-04-26T04:30:08.995Z,518.4615
2023-04-26T04:31:11.975Z,522.4615
2023-04-26T04:32:14.973Z,524.2308
2023-04-26T04:33:17.890Z,524.0769
2023-04-26T04:34:20.738Z,524.2308
2023-04-26T04:35:23.709Z,521.8461
2023-04-26T04:36:26.641Z,519.2308
2023-04-26T04:37:29.640Z,518.3846
2023-04-26T04:38:32.555Z,517.6154
2023-04-26T04:39:35.502Z,517.1539
2023-04-26T04:40:38.438Z,516.6923
2023-04-26T04:41:41.425Z,515.4615
2023-04-26T04:42:44.355Z,514.6154
2023-04-26T04:43:47.343Z,510.3846
2023-04-26T04:44:50.246Z,512.1539
2023-04-26T04:45:53.362Z,514.3077
2023-04-26T04:46:56.205Z,514.1539
2023-04-26T04:47:59.146Z,514.5385
2023-04-26T04:49:02.065Z,514.0769
2023-04-26T04:50:05.027Z,514.0000
2023-04-26T04:51:07.986Z,511.2308
2023-04-26T04:52:10.923Z,508.3077
2023-04-26T04:53:13.866Z,509.6154
2023-04-26T04:54:16.883Z,509.3077
2023-04-26T04:55:19.788Z,510.7692
2023-04-26T04:56:22.737Z,509.3846
2023-04-26T04:57:25.662Z,510.0769
2023-04-26T04:58:28.620Z,512.8461
2023-04-26T04:59:31.587Z,513.4615
2023-04-26T05:00:34.611Z,515.0769
2023-04-26T05:01:37.543Z,515.6923
2023-04-26T05:02:40.658Z,516.9231
2023-04-26T05:03:43.630Z,517.5385
2023-04-26T05:04:46.459Z,517.5385
2023-04-26T05:05:49.320Z,519.0000
2023-04-26T05:06:52.231Z,520.3846
2023-04-26T05:07:55.228Z,520.3077
2023-04-26T05:08:58.186Z,520.2308
2023-04-26T05:10:01.149Z,521.5385
2023-04-26T05:11:04.083Z,524.1539
2023-04-26T05:12:07.069Z,542.5385
2023-04-26T05:13:09.972Z,601.9231
2023-04-26T05:14:12.943Z,561.3846
2023-04-26T05:15:16.012Z,540.8461
2023-04-26T05:16:18.877Z,532.6923
2023-04-26T05:17:21.805Z,529.1539
2023-04-26T05:18:24.741Z,530.0769
2023-04-26T05:19:27.719Z,529.4615
2023-04-26T05:20:30.654Z,528.8461
2023-04-26T05:21:33.610Z,528.0769
2023-04-26T05:22:36.586Z,524.3846
2023-04-26T05:23:39.542Z,523.1539
2023-04-26T05:24:42.476Z,520.8461
2023-04-26T05:25:45.477Z,519.6923
2023-04-26T05:26:48.376Z,519.6923
2023-04-26T05:27:51.383Z,519.1539
2023-04-26T05:28:54.401Z,517.0000
2023-04-26T05:29:57.251Z,516.1539
2023-04-26T05:31:00.214Z,514.3846
2023-04-26T05:32:03.230Z,513.3846
2023-04-26T05:33:06.198Z,512.5385
2023-04-26T05:34:09.067Z,509.7692
2023-04-26T05:35:12.008Z,509.3846
2023-04-26T05:36:14.962Z,507.6923
2023-04-26T05:37:17.918Z,505.7692
2023-04-26T05:38:20.844Z,506.6923
2023-04-26T05:39:23.805Z,506.9231
2023-04-26T05:40:26.779Z,507.3846
2023-04-26T05:41:29.718Z,510.0769
2023-04-26T05:42:32.718Z,513.2308
2023-04-26T05:43:35.642Z,514.6923
2023-04-26T05:44:38.593Z,516.0000
2023-04-26T05:45:41.583Z,515.0000
2023-04-26T05:46:44.522Z,514.3846
2023-04-26T05:47:47.503Z,510.8462
2023-04-26T05:48:50.403Z,509.3077
2023-04-26T05:49:53.517Z,507.9231
2023-04-26T05:50:56.327Z,505.6154
2023-04-26T05:51:59.302Z,504.6923
2023-04-26T05:53:02.268Z,504.7692
2023-04-26T05:54:05.199Z,501.8462
2023-04-26T05:55:08.164Z,501.5385
2023-04-26T05:56:11.179Z,499.3846
2023-04-26T05:57:14.136Z,498.8462
2023-04-26T05:58:17.105Z,497.6923
2023-04-26T05:59:20.071Z,497.6154
2023-04-26T06:00:22.978Z,497.3077
2023-04-26T06:01:26.025Z,497.3846
2023-04-26T06:02:28.992Z,497.8462
2023-04-26T06:03:32.082Z,494.0000
2023-04-26T06:04:34.943Z,495.6923
2023-04-26T06:05:37.735Z,498.6923
2023-04-26T06:06:40.716Z,497.2308
2023-04-26T06:07:43.637Z,497.0769
2023-04-26T06:08:46.657Z,497.6154
2023-04-26T06:09:49.572Z,498.1538
2023-04-26T06:10:52.505Z,496.8462
2023-04-26T06:11:56.274Z,494.2308
2023-04-26T06:12:58.422Z,495.4615
2023-04-26T06:14:01.364Z,495.7692
2023-04-26T06:15:04.320Z,495.0769
2023-04-26T06:16:07.267Z,496.7692
2023-04-26T06:17:10.263Z,496.9231
2023-04-26T06:18:13.151Z,497.3077
2023-04-26T06:19:16.088Z,496.6154
2023-04-26T06:20:19.076Z,497.4615
2023-04-26T06:21:22.016Z,497.6923
2023-04-26T06:22:24.922Z,497.3077
2023-04-26T06:23:27.971Z,497.1538
2023-04-26T06:24:30.871Z,496.9231
2023-04-26T06:25:33.804Z,493.6923
2023-04-26T06:26:36.728Z,494.9231
2023-04-26T06:27:39.681Z,491.6154
2023-04-26T06:28:42.626Z,488.3077
2023-04-26T06:29:45.590Z,489.2308
2023-04-26T06:30:48.639Z,489.4615
2023-04-26T06:31:51.475Z,490.0769
2023-04-26T06:32:54.513Z,489.6154
2023-04-26T06:33:57.437Z,489.5385
2023-04-26T06:35:00.366Z,487.0769
2023-04-26T06:36:03.320Z,486.1538
2023-04-26T06:37:06.340Z,482.6923
2023-04-26T06:38:09.201Z,480.3846
2023-04-26T06:39:12.120Z,479.7692
2023-04-26T06:40:15.135Z,480.0000
2023-04-26T06:41:18.017Z,478.5385
2023-04-26T06:42:20.985Z,476.8462
2023-04-26T06:43:23.899Z,475.2308
2023-04-26T06:44:26.870Z,475.0000
2023-04-26T06:45:29.821Z,475.3077
2023-04-26T06:46:32.835Z,470.3846
2023-04-26T06:47:35.793Z,470.5385
2023-04-26T06:48:38.659Z,472.3077
2023-04-26T06:49:41.629Z,473.3846
2023-04-26T06:50:44.591Z,474.1538
2023-04-26T06:51:47.522Z,472.6154
2023-04-26T06:52:50.533Z,472.1538
2023-04-26T06:53:53.686Z,471.0769
2023-04-26T06:54:57.729Z,472.3846
2023-04-26T06:55:59.289Z,472.0769
2023-04-26T06:57:02.370Z,472.7692
2023-04-26T06:58:05.184Z,473.7692
2023-04-26T06:59:08.151Z,475.1538
2023-04-26T07:00:11.107Z,474.8462
2023-04-26T07:01:14.080Z,474.7692
2023-04-26T07:02:17.043Z,474.6154
2023-04-26T07:03:20.370Z,473.2308
2023-04-26T07:04:23.271Z,474.1538
2023-04-26T07:05:26.033Z,475.5385
2023-04-26T07:06:28.740Z,475.9231
2023-04-26T07:07:31.700Z,475.9231
2023-04-26T07:08:34.763Z,476.3846
2023-04-26T07:09:37.624Z,476.5385
2023-04-26T07:10:40.544Z,474.4615
2023-04-26T07:11:43.488Z,474.3077
2023-04-26T07:12:46.595Z,474.3846
2023-04-26T07:13:49.415Z,473.7692
2023-04-26T07:14:52.363Z,473.9231
2023-04-26T07:15:55.346Z,474.2308
2023-04-26T07:16:58.260Z,472.7692
2023-04-26T07:18:01.199Z,476.8462
2023-04-26T07:19:04.108Z,476.9231
2023-04-26T07:20:07.083Z,474.7692
2023-04-26T07:21:10.045Z,474.6154
2023-04-26T07:22:13.362Z,474.3846
2023-04-26T07:23:15.897Z,474.4615
2023-04-26T07:24:18.867Z,473.4615
2023-04-26T07:25:21.790Z,473.0769
2023-04-26T07:26:24.753Z,470.7692
2023-04-26T07:27:27.688Z,470.7692
2023-04-26T07:28:30.750Z,470.3077
2023-04-26T07:29:33.598Z,468.3077
2023-04-26T07:30:36.543Z,466.8462
2023-04-26T07:31:39.497Z,466.1538
2023-04-26T07:32:42.501Z,469.0000
2023-04-26T07:33:45.586Z,469.4615
2023-04-26T07:34:48.357Z,467.2308
2023-04-26T07:35:51.247Z,463.3846
2023-04-26T07:36:54.201Z,463.0000
2023-04-26T07:37:57.152Z,462.9231
2023-04-26T07:39:00.128Z,460.1538
2023-04-26T07:40:03.110Z,460.7692
2023-04-26T07:41:05.992Z,459.8462
2023-04-26T07:42:08.918Z,459.1538
2023-04-26T07:43:11.903Z,457.3077
2023-04-26T07:44:14.838Z,455.5385
2023-04-26T07:45:17.750Z,458.0769
2023-04-26T07:46:20.737Z,459.4615
2023-04-26T07:47:23.664Z,459.0769
2023-04-26T07:48:26.582Z,461.0000
2023-04-26T07:49:29.541Z,462.7692
2023-04-26T07:50:32.479Z,462.1538
2023-04-26T07:51:35.415Z,463.0769
2023-04-26T07:52:38.361Z,462.6923
2023-04-26T07:53:41.301Z,462.4615
2023-04-26T07:54:44.291Z,461.1538
2023-04-26T07:55:47.944Z,461.3077
2023-04-26T07:56:50.126Z,461.6923
2023-04-26T07:57:53.138Z,461.1538
2023-04-26T07:58:56.023Z,460.7692
2023-04-26T07:59:58.953Z,459.3846
2023-04-26T08:01:01.909Z,457.9231
2023-04-26T08:02:04.878Z,459.4615
2023-04-26T08:03:07.998Z,456.1538
2023-04-26T08:04:11.124Z,456.2308
2023-04-26T08:05:13.955Z,456.6923
2023-04-26T08:06:16.710Z,457.6923
2023-04-26T08:07:19.550Z,460.5385
2023-04-26T08:08:22.571Z,460.9231
2023-04-26T08:09:25.455Z,461.4615
2023-04-26T08:10:28.556Z,459.8462
2023-04-26T08:11:31.397Z,460.1538
2023-04-26T08:12:34.278Z,457.5385
2023-04-26T08:13:37.272Z,454.5385
2023-04-26T08:14:40.155Z,455.0000
2023-04-26T08:15:43.114Z,455.8462
2023-04-26T08:16:46.141Z,454.8462
2023-04-26T08:17:49.012Z,454.4615
2023-04-26T08:18:51.977Z,454.3846
2023-04-26T08:19:54.866Z,453.3846
2023-04-26T08:20:57.813Z,451.6923
2023-04-26T08:22:00.792Z,450.9231
2023-04-26T08:23:03.706Z,448.9231
2023-04-26T08:24:06.646Z,450.9231
2023-04-26T08:25:09.617Z,449.9231
2023-04-26T08:26:12.560Z,450.6923
2023-04-26T08:27:15.582Z,448.6154
2023-04-26T08:28:18.451Z,448.8462
2023-04-26T08:29:21.395Z,448.5385
2023-04-26T08:30:24.356Z,446.4615
2023-04-26T08:31:27.316Z,446.1538
2023-04-26T08:32:30.249Z,444.1538
2023-04-26T08:33:33.157Z,443.7692
2023-04-26T08:34:36.099Z,438.6923
2023-04-26T08:35:39.089Z,445.3077
2023-04-26T08:36:41.993Z,446.1538
2023-04-26T08:37:44.923Z,447.0000
2023-04-26T08:38:47.895Z,449.6923
2023-04-26T08:39:50.799Z,449.5385
2023-04-26T08:40:53.791Z,451.6923
2023-04-26T08:41:56.706Z,450.7692
2023-04-26T08:42:59.729Z,449.7692
2023-04-26T08:44:02.775Z,449.2308
2023-04-26T08:45:05.626Z,447.3077
2023-04-26T08:46:08.515Z,449.0769
2023-04-26T08:47:11.452Z,448.4615
2023-04-26T08:48:14.422Z,447.8462
2023-04-26T08:49:17.337Z,445.3846
2023-04-26T08:50:20.291Z,450.0000
2023-04-26T08:51:23.416Z,447.6923
2023-04-26T08:52:26.163Z,445.3077
2023-04-26T08:53:29.122Z,448.3077
2023-04-26T08:54:32.148Z,450.1538
2023-04-26T08:55:35.051Z,452.1538
2023-04-26T08:56:37.956Z,451.0000
2023-04-26T08:57:40.947Z,448.6154
2023-04-26T08:58:43.935Z,449.6923
2023-04-26T08:59:46.805Z,446.3077
2023-04-26T09:00:49.919Z,442.3846
2023-04-26T09:01:52.751Z,442.3846
2023-04-26T09:02:55.752Z,444.2308
2023-04-26T09:03:58.881Z,442.8462
2023-04-26T09:05:01.804Z,444.7692
2023-04-26T09:06:04.614Z,445.5385
2023-04-26T09:07:07.439Z,446.2308
2023-04-26T09:08:10.396Z,444.3846
2023-04-26T09:09:13.325Z,442.6154
2023-04-26T09:10:16.260Z,445.3077
2023-04-26T09:11:19.237Z,444.6923
2023-04-26T09:12:22.157Z,444.0769
2023-04-26T09:13:25.148Z,443.1538
2023-04-26T09:14:28.081Z,440.3846
2023-04-26T09:15:30.992Z,438.9231
2023-04-26T09:16:34.089Z,437.7692
2023-04-26T09:17:37.220Z,437.7692
2023-04-26T09:18:39.837Z,436.4615
2023-04-26T09:19:42.769Z,435.9231
2023-04-26T09:20:45.728Z,439.0769
2023-04-26T09:21:48.723Z,437.6154
2023-04-26T09:22:51.644Z,438.1538
2023-04-26T09:23:54.562Z,440.0769
2023-04-26T09:24:57.557Z,439.1538
2023-04-26T09:26:00.439Z,438.3077
2023-04-26T09:27:03.403Z,437.4615
2023-04-26T09:28:06.364Z,441.6154
2023-04-26T09:29:09.294Z,441.0769
2023-04-26T09:30:12.242Z,443.4615
2023-04-26T09:31:15.237Z,445.0000
2023-04-26T09:32:18.187Z,446.5385
2023-04-26T09:33:21.134Z,449.6154
2023-04-26T09:34:24.020Z,453.3077
2023-04-26T09:35:26.967Z,456.7692
2023-04-26T09:36:29.909Z,454.9231
2023-04-26T09:37:34.386Z,454.1538
2023-04-26T09:38:35.847Z,451.0000
2023-04-26T09:39:38.768Z,450.6923
2023-04-26T09:40:41.770Z,448.0000
2023-04-26T09:41:44.680Z,451.6154
2023-04-26T09:42:47.601Z,451.6154
2023-04-26T09:43:50.733Z,449.2308
2023-04-26T09:44:53.499Z,443.9231
2023-04-26T09:45:56.453Z,446.0769
2023-04-26T09:46:59.446Z,441.9231
2023-04-26T09:48:02.376Z,442.9231
2023-04-26T09:49:05.335Z,443.8462
2023-04-26T09:50:08.285Z,440.4615
2023-04-26T09:51:11.202Z,441.0769
2023-04-26T09:52:14.144Z,442.9231
2023-04-26T09:53:17.147Z,443.5385
2023-04-26T09:54:20.053Z,442.2308
2023-04-26T09:55:34.231Z,443.3077
2023-04-26T09:56:25.961Z,441.4615
2023-04-26T09:57:28.922Z,442.8462
2023-04-26T09:58:31.836Z,446.6154
2023-04-26T09:59:34.809Z,448.3846
2023-04-26T10:00:37.751Z,439.1538
2023-04-26T10:01:40.696Z,442.6923
2023-04-26T10:02:43.732Z,447.9231
2023-04-26T10:03:46.855Z,449.6923
2023-04-26T10:04:49.678Z,449.1538
2023-04-26T10:05:52.532Z,442.9231
2023-04-26T10:06:55.520Z,443.4615
2023-04-26T10:07:58.419Z,442.1538
2023-04-26T10:09:01.366Z,441.1538
2023-04-26T10:10:04.348Z,437.4615
2023-04-26T10:11:07.268Z,438.0769
2023-04-26T10:12:10.210Z,438.9231
2023-04-26T10:13:13.302Z,435.3077
2023-04-26T10:14:16.105Z,434.8462
2023-04-26T10:15:19.095Z,435.5385
2023-04-26T10:16:22.070Z,436.7692
2023-04-26T10:17:25.018Z,436.2308
2023-04-26T10:18:27.964Z,438.7692
2023-04-26T10:19:30.869Z,440.3846
2023-04-26T10:20:33.931Z,439.4615
2023-04-26T10:21:36.754Z,439.5385
2023-04-26T10:22:39.776Z,442.1538
2023-04-26T10:23:42.648Z,442.6923
2023-04-26T10:24:45.585Z,440.6923
2023-04-26T10:25:48.553Z,442.4615
2023-04-26T10:26:51.497Z,442.0000
2023-04-26T10:27:54.436Z,439.0769
2023-04-26T10:29:02.084Z,439.2308
2023-04-26T10:30:00.327Z,439.7692
2023-04-26T10:31:03.278Z,445.4615
2023-04-26T10:32:06.346Z,448.6923
2023-04-26T10:33:09.270Z,448.6154
2023-04-26T10:34:12.227Z,446.5385
2023-04-26T10:35:15.089Z,444.3846
2023-04-26T10:36:18.076Z,443.7692
2023-04-26T10:37:21.074Z,445.3846
2023-04-26T10:38:23.962Z,437.4615
2023-04-26T10:39:26.969Z,437.9231
2023-04-26T10:40:29.876Z,439.0000
2023-04-26T10:41:32.880Z,435.3846
2023-04-26T10:42:35.793Z,435.1538
2023-04-26T10:43:38.735Z,438.3077
2023-04-26T10:44:41.694Z,439.2308
2023-04-26T10:45:44.669Z,439.7692
2023-04-26T10:46:47.605Z,441.4615
2023-04-26T10:47:50.635Z,440.1538
2023-04-26T10:48:53.866Z,437.2308
2023-04-26T10:49:56.482Z,438.2308
2023-04-26T10:50:59.473Z,438.6154
2023-04-26T10:52:02.378Z,440.4615
2023-04-26T10:53:05.411Z,442.1538
2023-04-26T10:54:08.292Z,439.3077
2023-04-26T10:55:11.435Z,438.0769
2023-04-26T10:56:14.182Z,437.3077
2023-04-26T10:57:17.151Z,438.7692
2023-04-26T10:58:20.123Z,438.8462
2023-04-26T10:59:39.688Z,441.3846
2023-04-26T11:00:26.779Z,440.3077
2023-04-26T11:01:28.985Z,439.6154
2023-04-26T11:02:31.946Z,438.7692
2023-04-26T11:03:35.191Z,438.1538
2023-04-26T11:04:37.932Z,436.6923
2023-04-26T11:05:40.799Z,437.0769
2023-04-26T11:06:43.772Z,435.7692
2023-04-26T11:07:46.728Z,432.0769
2023-04-26T11:08:49.746Z,431.6923
2023-04-26T11:09:52.756Z,433.0000
2023-04-26T11:10:55.571Z,434.3846
2023-04-26T11:11:58.513Z,433.5385
2023-04-26T11:13:01.497Z,431.2308
2023-04-26T11:14:04.452Z,431.2308
2023-04-26T11:15:07.400Z,428.7692
2023-04-26T11:16:10.413Z,428.2308
2023-04-26T11:17:13.410Z,431.0000
2023-04-26T11:18:16.254Z,431.6154
2023-04-26T11:19:19.208Z,426.7692
2023-04-26T11:20:22.208Z,427.9231
2023-04-26T11:21:25.116Z,427.9231
2023-04-26T11:22:28.064Z,430.1538
2023-04-26T11:23:31.085Z,430.6923
2023-04-26T11:24:34.060Z,430.5385
2023-04-26T11:25:36.980Z,429.0769
2023-04-26T11:26:39.877Z,426.1538
2023-04-26T11:27:42.912Z,426.4615
2023-04-26T11:28:45.819Z,428.2308
2023-04-26T11:29:48.732Z,431.6923
2023-04-26T11:30:51.726Z,434.7692
2023-04-26T11:31:54.777Z,434.0769
2023-04-26T11:32:57.646Z,431.4615
2023-04-26T11:34:00.787Z,425.3077
2023-04-26T11:35:03.507Z,427.2308
2023-04-26T11:36:06.584Z,425.9231
2023-04-26T11:37:09.451Z,429.2308
2023-04-26T11:38:12.448Z,430.0769
2023-04-26T11:39:15.351Z,422.1538
2023-04-26T11:40:18.334Z,421.6154
2023-04-26T11:41:21.454Z,424.0769
2023-04-26T11:42:24.198Z,430.6154
2023-04-26T11:43:27.206Z,433.5385
2023-04-26T11:44:30.267Z,431.8462
2023-04-26T11:45:33.076Z,426.8462
2023-04-26T11:46:36.075Z,426.0769
2023-04-26T11:47:39.019Z,426.0769
2023-04-26T11:48:42.015Z,424.3846
2023-04-26T11:49:44.910Z,425.0000
2023-04-26T11:50:47.944Z,427.6154
2023-04-26T11:51:50.822Z,424.3077
2023-04-26T11:52:53.770Z,422.0000
2023-04-26T11:53:56.838Z,428.6923
2023-04-26T11:54:59.683Z,422.3846
2023-04-26T11:56:02.700Z,420.6923
2023-04-26T11:57:05.607Z,417.3077
2023-04-26T11:58:08.559Z,417.2308
2023-04-26T11:59:11.553Z,419.8462
2023-04-26T12:00:14.486Z,419.6154
2023-04-26T12:01:17.517Z,420.3077
2023-04-26T12:02:20.492Z,425.0000
2023-04-26T12:03:23.486Z,425.7692
2023-04-26T12:04:29.689Z,427.3077
2023-04-26T12:05:29.279Z,424.3846
2023-04-26T12:06:32.327Z,426.3077
2023-04-26T12:07:35.182Z,427.4615
2023-04-26T12:08:38.194Z,428.8462
2023-04-26T12:09:41.111Z,429.0000
2023-04-26T12:10:44.045Z,430.9231
2023-04-26T12:11:46.990Z,432.6923
2023-04-26T12:12:50.069Z,431.3077
2023-04-26T12:13:52.964Z,426.5385
2023-04-26T12:14:55.888Z,427.3846
2023-04-26T12:15:59.073Z,427.3077
2023-04-26T12:17:02.159Z,426.0769
2023-04-26T12:18:04.864Z,427.3077
2023-04-26T12:19:07.756Z,427.1538
2023-04-26T12:20:10.822Z,426.6923